Time;durP1;ratioP1;P1;durP2;ratioP2;P2;SDS_P1;SDS_P2;PMS_P1;PMS_P2;Temp;Humidity;BMP_temperature;BMP_pressure;BME280_temperature;BME280_humidity;BME280_pressure;Samples;Min_cycle;Max_cycle;Signal;HPM_P1;HPM_P2
2022/03/22 00:00:12;;;;;;;9.48;4.90;;;;;;;3.00;43.25;97709.31;5115719;28;20381;-67
2022/03/22 00:02:38;;;;;;;14.75;5.30;;;;;;;3.03;43.62;97717.13;5115581;28;20019;-67
2022/03/22 00:05:04;;;;;;;16.83;10.73;;;;;;;3.04;42.67;97713.66;5115460;28;20027;-67
2022/03/22 00:07:30;;;;;;;8.63;4.95;;;;;;;3.01;43.08;97711.09;5115504;28;20065;-67
2022/03/22 00:09:56;;;;;;;8.88;5.68;;;;;;;3.04;41.93;97718.84;5115367;28;20107;-67
2022/03/22 00:12:22;;;;;;;9.95;6.40;;;;;;;3.05;41.73;97715.44;5115317;28;20051;-67
2022/03/22 00:14:47;;;;;;;9.93;5.68;;;;;;;3.06;39.89;97703.34;5115135;28;20019;-67
2022/03/22 00:17:13;;;;;;;8.50;4.32;;;;;;;3.06;42.59;97705.94;5115301;28;20381;-67
2022/03/22 00:19:38;;;;;;;9.43;4.68;;;;;;;3.06;41.65;97704.22;5113882;28;20049;-67
2022/03/22 00:22:04;;;;;;;7.95;4.72;;;;;;;3.04;42.09;97685.22;5115156;28;20112;-67
2022/03/22 00:24:30;;;;;;;8.00;4.72;;;;;;;3.06;41.33;97703.34;5114978;28;20362;-67
2022/03/22 00:26:56;;;;;;;6.78;4.15;;;;;;;3.14;38.91;97691.38;5115019;28;20377;-67
2022/03/22 00:29:21;;;;;;;7.93;5.03;;;;;;;3.18;40.21;97690.56;5114526;28;20035;-67
2022/03/22 00:31:47;;;;;;;8.75;4.82;;;;;;;3.43;35.92;97693.38;5115043;28;20031;-67
2022/03/22 00:34:13;;;;;;;17.45;5.88;;;;;;;3.71;34.96;97695.34;5114800;28;20161;-67
2022/03/22 00:36:42;;;;;;;12.95;5.15;;;;;;;3.86;35.02;97677.34;5114828;28;20015;-67
2022/03/22 00:39:07;;;;;;;9.07;5.43;;;;;;;3.95;36.43;97689.47;5114678;28;20040;-67
2022/03/22 00:41:33;;;;;;;9.32;5.57;;;;;;;4.01;36.15;97680.88;5113534;28;20016;-67
2022/03/22 00:43:59;;;;;;;8.85;5.60;;;;;;;4.08;36.21;97674.88;5114609;28;20500;-67
2022/03/22 00:46:25;;;;;;;8.65;5.32;;;;;;;4.04;36.63;97678.31;5114671;28;20388;-67
2022/03/22 00:48:50;;;;;;;8.98;5.80;;;;;;;4.09;35.01;97673.16;5114669;28;20026;-67
2022/03/22 00:51:16;;;;;;;8.75;5.13;;;;;;;4.21;34.10;97668.03;5114710;28;20031;-67
2022/03/22 00:53:42;;;;;;;7.43;5.00;;;;;;;4.29;35.81;97674.16;5114402;27;20118;-67
2022/03/22 00:56:08;;;;;;;8.88;4.85;;;;;;;4.30;36.36;97665.50;5114433;28;20397;-67
2022/03/22 00:58:34;;;;;;;10.82;4.60;;;;;;;4.21;37.24;97667.19;5114309;28;20024;-67
2022/03/22 01:01:01;;;;;;;6.95;4.90;;;;;;;4.19;36.94;97663.72;5114294;28;20493;-67
2022/03/22 01:03:28;;;;;;;7.70;4.40;;;;;;;4.14;37.39;97659.38;5114386;28;20034;-67
2022/03/22 01:05:54;;;;;;;10.10;5.18;;;;;;;4.14;37.33;97663.69;5114247;27;20024;-67
2022/03/22 01:08:20;;;;;;;7.15;5.15;;;;;;;4.17;37.13;97661.13;5114429;27;20476;-67
2022/03/22 01:10:52;;;;;;;8.18;5.43;;;;;;;4.17;36.59;97649.03;5114189;28;20424;-66
2022/03/22 01:13:20;;;;;;;14.05;5.00;;;;;;;4.22;35.55;97662.03;5114131;28;20023;-67
2022/03/22 01:15:46;;;;;;;11.32;5.38;;;;;;;4.28;35.09;97658.59;5114065;28;20556;-67
2022/03/22 01:18:13;;;;;;;9.40;6.10;;;;;;;4.32;35.38;97642.19;5114088;28;20102;-67
2022/03/22 01:20:44;;;;;;;10.10;5.10;;;;;;;4.34;34.64;97632.72;5114159;28;20016;-67
2022/03/22 01:23:11;;;;;;;11.43;5.80;;;;;;;4.62;32.73;97642.31;5114069;28;20449;-67
2022/03/22 01:25:41;;;;;;;10.13;5.55;;;;;;;4.70;32.94;97634.56;5113997;28;20015;-67
2022/03/22 01:28:09;;;;;;;8.82;5.45;;;;;;;4.75;33.98;97633.72;5113999;28;20362;-67
2022/03/22 01:30:36;;;;;;;11.18;6.35;;;;;;;4.80;32.87;97632.00;5113956;27;20396;-67
2022/03/22 01:33:02;;;;;;;9.07;6.30;;;;;;;4.88;31.93;97634.59;5113920;28;20526;-67
2022/03/22 01:35:28;;;;;;;10.65;5.53;;;;;;;5.03;31.15;97630.31;5113685;28;20035;-67
2022/03/22 01:37:55;;;;;;;11.30;5.68;;;;;;;5.08;31.22;97626.00;5113823;28;20026;-67
2022/03/22 01:40:24;;;;;;;9.43;6.90;;;;;;;5.15;31.04;97632.06;5112696;28;20048;-67
2022/03/22 01:42:50;;;;;;;9.80;6.15;;;;;;;5.26;31.00;97619.97;5113727;28;20020;-67
2022/03/22 01:45:16;;;;;;;10.18;6.57;;;;;;;5.35;31.70;97615.63;5113668;28;20061;-67
2022/03/22 01:47:44;;;;;;;10.27;6.15;;;;;;;5.37;31.69;97621.69;5113645;28;20028;-67
2022/03/22 01:50:11;;;;;;;12.10;6.10;;;;;;;5.38;31.71;97615.63;5113619;28;20024;-67
2022/03/22 01:52:40;;;;;;;9.13;5.20;;;;;;;5.39;32.19;97618.22;5113553;28;20016;-67
2022/03/22 01:55:08;;;;;;;6.18;4.93;;;;;;;5.39;32.47;97610.44;5113608;28;20469;-67
2022/03/22 01:57:34;;;;;;;12.30;6.25;;;;;;;5.36;32.44;97596.63;5113606;28;20019;-68
2022/03/22 02:00:03;;;;;;;9.30;5.32;;;;;;;5.32;33.07;97600.94;5113582;28;20041;-67
2022/03/22 02:08:00;;;;;;;9.27;5.40;;;;;;;5.12;32.68;97591.41;5113781;28;20058;-67
2022/03/22 02:10:26;;;;;;;9.90;5.75;;;;;;;5.13;32.60;97592.28;5113484;28;20019;-67
2022/03/22 02:12:52;;;;;;;7.07;4.82;;;;;;;5.03;32.60;97587.06;5113345;28;20099;-67
2022/03/22 02:15:17;;;;;;;10.35;5.35;;;;;;;4.91;32.75;97584.50;5113282;28;20024;-67
2022/03/22 02:17:46;;;;;;;8.82;5.97;;;;;;;4.87;32.78;97577.53;5113281;28;20023;-67
2022/03/22 02:20:13;;;;;;;11.85;5.97;;;;;;;5.03;31.94;97568.06;5113325;28;20054;-67
2022/03/22 02:22:52;;;;;;;12.43;6.47;;;;;;;5.09;32.72;97575.84;5113357;28;20476;-67
2022/03/22 02:25:21;;;;;;;13.07;6.53;;;;;;;5.15;31.86;97575.00;5113340;28;20027;-67
2022/03/22 02:27:52;;;;;;;14.25;6.65;;;;;;;5.33;31.34;97571.53;5113285;28;20019;-67
2022/03/22 02:30:17;;;;;;;10.07;5.55;;;;;;;5.35;31.42;97576.69;5113363;28;20469;-67
2022/03/22 02:32:54;;;;;;;10.27;6.43;;;;;;;5.34;30.96;97565.47;5113241;28;20024;-67
2022/03/22 02:35:22;;;;;;;11.23;6.45;;;;;;;5.34;31.33;97567.19;5113224;28;20115;-67
2022/03/22 02:37:48;;;;;;;14.10;6.25;;;;;;;5.27;31.64;97566.34;5113216;28;20069;-67
2022/03/22 02:40:15;;;;;;;12.48;7.20;;;;;;;5.22;31.85;97566.34;5112923;28;20520;-67
2022/03/22 02:42:50;;;;;;;9.52;6.68;;;;;;;5.16;31.49;97575.00;5113243;28;20433;-67
2022/03/22 02:45:18;;;;;;;14.48;7.10;;;;;;;5.19;31.49;97576.72;5113291;28;20031;-67
2022/03/22 02:47:44;;;;;;;12.95;6.88;;;;;;;5.10;31.95;97567.22;5113191;28;20156;-67
2022/03/22 02:50:11;;;;;;;14.98;8.10;;;;;;;5.04;31.92;97573.28;5113111;28;20462;-67
2022/03/22 02:52:38;;;;;;;14.45;8.13;;;;;;;4.99;32.47;97568.91;5115846;28;20020;-67
2022/03/22 02:55:06;;;;;;;11.73;7.10;;;;;;;5.06;32.13;97575.88;5116786;28;20027;-67
2022/03/22 02:57:33;;;;;;;12.57;7.25;;;;;;;5.05;32.46;97576.69;5116981;28;20032;-67
2022/03/22 02:59:58;;;;;;;14.02;8.27;;;;;;;5.06;32.16;97583.66;5116884;28;20020;-67
2022/03/22 03:02:24;;;;;;;12.25;7.63;;;;;;;5.02;32.14;97581.88;5116595;28;20024;-67
2022/03/22 03:04:49;;;;;;;12.90;7.43;;;;;;;4.97;32.50;97573.25;5116645;28;20028;-67
2022/03/22 03:07:15;;;;;;;20.40;8.32;;;;;;;4.96;32.49;97579.31;5116588;28;20047;-67
2022/03/22 03:09:41;;;;;;;15.75;7.45;;;;;;;4.91;32.55;97574.97;5116569;28;20034;-67
2022/03/22 03:12:07;;;;;;;14.10;7.82;;;;;;;4.83;32.75;97573.22;5116475;28;20431;-67
2022/03/22 03:14:38;;;;;;;15.50;7.07;;;;;;;4.80;32.78;97563.72;5116425;28;20016;-67
2022/03/22 03:17:05;;;;;;;11.75;7.40;;;;;;;4.76;32.77;97568.03;5116556;28;20102;-67
2022/03/22 03:19:31;;;;;;;16.73;7.25;;;;;;;4.74;32.88;97572.38;5116463;28;20020;-67
2022/03/22 03:21:56;;;;;;;15.57;8.05;;;;;;;4.73;33.00;97573.19;5116447;28;20039;-67
2022/03/22 03:24:22;;;;;;;13.70;7.60;;;;;;;4.71;33.20;97569.75;5116292;27;20023;-67
2022/03/22 03:26:47;;;;;;;13.70;7.85;;;;;;;4.67;33.34;97571.47;5116247;28;20095;-67
2022/03/22 03:29:13;;;;;;;17.08;8.65;;;;;;;4.70;33.63;97575.81;5116235;28;20019;-67
2022/03/22 03:31:38;;;;;;;13.43;8.18;;;;;;;4.71;33.69;97571.47;5116078;28;20019;-67
2022/03/22 03:34:04;;;;;;;13.77;7.68;;;;;;;4.76;33.73;97569.78;5116094;28;20116;-67
2022/03/22 03:36:30;;;;;;;15.23;8.13;;;;;;;4.71;33.90;97574.94;5116083;28;20034;-67
2022/03/22 03:38:55;;;;;;;14.23;7.20;;;;;;;4.75;34.13;97573.22;5115732;28;20143;-67
2022/03/22 03:47:03;;;;;;;12.27;7.82;;;;;;;4.76;33.98;97555.06;5116298;28;20034;-67
2022/03/22 03:47:09;;;;;;;13.70;7.47;;;;;;;4.78;34.10;97553.34;5116049;28;20054;-67
2022/03/22 03:49:34;;;;;;;13.68;7.85;;;;;;;4.78;34.12;97548.16;5115923;28;20059;-67
2022/03/22 03:52:02;;;;;;;14.02;7.85;;;;;;;4.75;34.31;97553.34;5115801;28;20031;-67
2022/03/22 03:54:28;;;;;;;12.18;7.65;;;;;;;4.77;34.44;97555.94;5115566;28;20028;-67
2022/03/22 03:56:53;;;;;;;11.27;7.43;;;;;;;4.80;34.36;97542.97;5115754;28;20027;-67
2022/03/22 03:59:20;;;;;;;12.85;7.65;;;;;;;4.77;34.55;97545.56;5115759;28;20084;-67
2022/03/22 04:01:49;;;;;;;14.95;8.40;;;;;;;4.81;34.75;97544.69;5115563;28;20023;-67
2022/03/22 04:04:15;;;;;;;15.27;8.52;;;;;;;4.81;34.70;97547.28;5114476;28;20520;-67
2022/03/22 04:06:40;;;;;;;14.20;8.45;;;;;;;4.76;34.32;97555.06;5115577;27;20051;-67
2022/03/22 04:09:06;;;;;;;14.60;8.07;;;;;;;4.79;34.39;97541.25;5115569;28;20454;-67
2022/03/22 04:11:31;;;;;;;13.40;7.90;;;;;;;4.83;34.60;97534.34;5115355;28;20027;-67
2022/03/22 04:13:57;;;;;;;13.45;7.65;;;;;;;4.75;34.66;97539.50;5115318;28;20020;-67
2022/03/22 04:16:23;;;;;;;13.23;8.13;;;;;;;4.80;34.27;97523.13;5115430;28;20544;-67
2022/03/22 04:18:50;;;;;;;15.35;8.07;;;;;;;4.78;34.45;97537.78;5115248;28;20078;-66
2022/03/22 04:21:16;;;;;;;13.13;8.02;;;;;;;4.77;34.67;97542.97;5115185;28;20055;-67
2022/03/22 04:23:42;;;;;;;14.05;8.27;;;;;;;4.74;34.86;97541.25;5115314;28;20030;-67
2022/03/22 04:26:08;;;;;;;15.68;8.50;;;;;;;4.78;35.03;97534.31;5115113;28;20391;-67
2022/03/22 04:34:01;;;;;;;13.13;7.25;;;;;;;4.76;35.36;97533.47;5114990;28;20039;-66
2022/03/22 04:36:29;;;;;;;13.60;8.65;;;;;;;4.77;35.34;97533.47;5114934;28;20020;-67
2022/03/22 04:38:55;;;;;;;14.10;7.93;;;;;;;4.85;35.55;97533.47;5118385;27;20130;-67
2022/03/22 04:41:21;;;;;;;13.45;8.45;;;;;;;4.82;35.16;97530.91;5114882;28;20031;-67
2022/03/22 04:43:47;;;;;;;15.38;8.50;;;;;;;4.87;35.12;97529.16;5114849;28;20035;-67
2022/03/22 04:46:18;;;;;;;15.52;8.32;;;;;;;4.90;35.37;97517.91;5114805;28;20023;-67
2022/03/22 04:48:47;;;;;;;13.23;8.40;;;;;;;4.85;35.33;97519.66;5114690;28;20027;-67
2022/03/22 04:56:48;;;;;;;12.60;8.02;;;;;;;4.99;35.70;97522.22;5114908;28;20034;-67
2022/03/22 04:59:16;;;;;;;13.07;8.15;;;;;;;5.09;35.83;97515.34;5113208;28;20102;-67
2022/03/22 05:01:45;;;;;;;14.07;7.63;;;;;;;5.23;35.47;97510.13;5114437;28;20080;-66
2022/03/22 05:04:12;;;;;;;16.75;7.75;;;;;;;5.75;34.83;97493.56;5113198;28;20027;-66
2022/03/22 05:06:38;;;;;;;15.00;8.70;;;;;;;6.39;33.95;97497.66;5114312;28;20435;-67
2022/03/22 05:09:08;;;;;;;21.17;8.20;;;;;;;7.00;33.05;97479.88;5114574;27;20049;-67
2022/03/22 05:11:34;;;;;;;13.02;7.95;;;;;;;7.55;32.24;97488.03;5114310;28;20046;-67
2022/03/22 05:14:01;;;;;;;13.02;8.15;;;;;;;7.94;31.63;97473.69;5113871;28;20016;-67
2022/03/22 05:16:27;;;;;;;11.73;7.57;;;;;;;8.34;31.07;97478.38;5114149;28;20072;-67
2022/03/22 05:18:54;;;;;;;11.88;8.10;;;;;;;8.54;31.37;97485.09;5114148;28;20020;-66
2022/03/22 05:21:19;;;;;;;13.63;8.65;;;;;;;8.84;30.92;97475.06;5114149;28;20488;-66
2022/03/22 05:23:45;;;;;;;12.00;7.47;;;;;;;9.33;30.94;97474.25;5114088;28;20048;-68
2022/03/22 05:26:14;;;;;;;17.85;8.30;;;;;;;9.55;29.70;97479.06;5114029;28;20019;-68
2022/03/22 05:28:40;;;;;;;15.48;8.75;;;;;;;9.78;29.95;97470.78;5113940;28;20015;-67
2022/03/22 05:31:09;;;;;;;11.75;7.72;;;;;;;10.04;29.15;97473.75;5113809;28;20028;-68
2022/03/22 05:33:36;;;;;;;13.95;7.88;;;;;;;10.46;28.72;97475.50;5113833;28;20012;-67
2022/03/22 05:36:02;;;;;;;17.45;8.65;;;;;;;10.74;29.06;97465.25;5113814;28;20026;-67
2022/03/22 05:38:28;;;;;;;11.07;7.50;;;;;;;10.96;28.41;97476.97;5113832;28;20469;-68
2022/03/22 05:40:54;;;;;;;13.20;7.93;;;;;;;11.44;28.37;97480.97;5113643;28;20055;-66
2022/03/22 05:43:21;;;;;;;12.57;8.07;;;;;;;11.91;27.05;97484.09;5113667;28;20028;-67
2022/03/22 05:45:48;;;;;;;15.60;8.60;;;;;;;12.10;27.50;97477.44;5113807;28;20032;-66
2022/03/22 05:48:18;;;;;;;14.23;8.57;;;;;;;12.22;27.08;97478.00;5113718;28;20031;-67
2022/03/22 05:50:44;;;;;;;14.52;8.07;;;;;;;12.11;27.45;97478.31;5113647;28;20032;-68
2022/03/22 05:53:12;;;;;;;14.68;8.15;;;;;;;12.25;27.67;97455.16;5113666;28;20024;-68
2022/03/22 05:55:39;;;;;;;11.35;7.28;;;;;;;12.23;27.36;97458.75;5113663;28;20469;-68
2022/03/22 05:58:05;;;;;;;11.50;7.95;;;;;;;12.50;27.93;97470.13;5113614;28;20425;-67
2022/03/22 06:00:31;;;;;;;11.95;7.57;;;;;;;12.75;27.22;97461.50;5113558;28;20029;-67
2022/03/22 06:02:56;;;;;;;10.18;7.28;;;;;;;12.93;27.91;97456.56;5113521;28;20102;-67
2022/03/22 06:05:22;;;;;;;12.45;7.57;;;;;;;13.26;27.32;97440.56;5113629;28;20023;-67
2022/03/22 06:07:49;;;;;;;16.00;7.30;;;;;;;13.06;27.46;97451.75;5113623;28;20016;-67
2022/03/22 06:10:15;;;;;;;13.40;7.78;;;;;;;13.39;26.93;97437.50;5113607;28;20092;-68
2022/03/22 06:12:52;;;;;;;10.55;7.30;;;;;;;13.32;27.41;97434.25;5113528;28;20099;-67
2022/03/22 06:15:20;;;;;;;10.35;7.13;;;;;;;13.48;27.24;97439.81;5113258;28;20039;-66
2022/03/22 06:17:49;;;;;;;14.95;7.55;;;;;;;13.82;26.63;97431.66;5113317;28;20020;-68
2022/03/22 06:20:21;;;;;;;13.25;7.85;;;;;;;13.05;27.41;97433.41;5113347;28;20542;-68
2022/03/22 06:22:48;;;;;;;10.68;6.93;;;;;;;13.36;27.36;97442.88;5113387;28;20048;-67
2022/03/22 06:25:15;;;;;;;12.65;7.50;;;;;;;13.71;26.79;97439.94;5113297;28;20024;-67
2022/03/22 06:27:42;;;;;;;12.32;6.70;;;;;;;13.45;27.58;97471.47;5116380;28;20024;-66
2022/03/22 06:30:10;;;;;;;10.93;6.80;;;;;;;12.92;28.53;97451.34;5117303;28;20101;-67
2022/03/22 06:32:47;;;;;;;10.43;6.32;;;;;;;12.76;28.94;97429.09;5117402;28;20020;-66
2022/03/22 06:35:33;;;;;;;10.23;7.10;;;;;;;12.81;28.95;97449.94;5117189;28;20047;-68
2022/03/22 06:38:00;;;;;;;8.98;7.00;;;;;;;12.81;28.80;97452.56;5117089;28;20443;-67
2022/03/22 06:40:29;;;;;;;12.30;7.43;;;;;;;12.60;29.54;97457.59;5116931;28;20063;-68
2022/03/22 06:42:56;;;;;;;17.80;7.90;;;;;;;12.84;28.25;97468.22;5117164;28;20016;-66
2022/03/22 06:45:22;;;;;;;11.13;7.47;;;;;;;12.36;29.90;97472.34;5117121;28;20055;-65
2022/03/22 06:47:51;;;;;;;12.45;7.55;;;;;;;11.85;30.66;97461.53;5117178;28;20027;-68
2022/03/22 06:50:20;;;;;;;15.10;8.27;;;;;;;12.28;29.76;97474.34;5117037;28;20037;-66
2022/03/22 06:52:46;;;;;;;11.93;7.20;;;;;;;12.40;29.67;97479.19;5116833;28;20031;-66
2022/03/22 06:55:14;;;;;;;10.52;7.70;;;;;;;11.73;30.45;97486.34;5116729;28;20373;-68
2022/03/22 06:57:42;;;;;;;13.00;7.60;;;;;;;11.70;31.14;97474.19;5116831;28;20461;-66
2022/03/22 07:00:10;;;;;;;13.32;7.43;;;;;;;11.64;30.96;97469.09;5116910;28;20431;-68
2022/03/22 07:02:39;;;;;;;13.32;7.95;;;;;;;11.53;31.38;97489.50;5116880;28;20376;-68
2022/03/22 07:05:06;;;;;;;15.00;7.47;;;;;;;11.28;31.82;97500.59;5116743;28;20028;-66
2022/03/22 07:07:32;;;;;;;11.88;6.93;;;;;;;11.03;32.77;97493.38;5116578;28;20438;-66
2022/03/22 07:09:57;;;;;;;11.75;6.63;;;;;;;11.17;32.84;97487.81;5116727;28;20019;-68
2022/03/22 07:12:23;;;;;;;11.73;6.85;;;;;;;11.24;32.29;97474.53;5116743;28;20098;-67
2022/03/22 07:14:49;;;;;;;9.10;5.80;;;;;;;11.08;32.61;97473.19;5116531;28;20488;-65
2022/03/22 07:17:14;;;;;;;10.02;6.80;;;;;;;10.69;33.58;97479.34;5116531;28;20024;-65
2022/03/22 07:19:40;;;;;;;11.10;7.57;;;;;;;10.51;34.06;97478.03;5116398;28;20034;-68
2022/03/22 07:22:07;;;;;;;10.68;6.65;;;;;;;10.76;33.78;97474.81;5116410;28;20389;-67
2022/03/22 07:24:33;;;;;;;11.23;7.00;;;;;;;10.77;34.07;97469.56;5116342;28;20415;-65
2022/03/22 07:26:59;;;;;;;10.02;6.25;;;;;;;10.91;33.58;97470.97;5116458;28;20016;-65
2022/03/22 07:29:25;;;;;;;11.85;7.32;;;;;;;11.15;32.93;97474.75;5116357;28;20072;-66
2022/03/22 07:31:51;;;;;;;12.77;8.20;;;;;;;11.32;33.61;97478.69;5116161;28;20028;-65
2022/03/22 07:34:19;;;;;;;15.25;7.15;;;;;;;11.48;33.30;97494.88;5116048;28;20030;-66
2022/03/22 07:36:46;;;;;;;13.30;7.15;;;;;;;11.48;33.54;97477.41;5116258;28;20369;-66
2022/03/22 07:39:13;;;;;;;10.93;6.90;;;;;;;11.49;32.69;97479.09;5114398;28;20464;-66
2022/03/22 07:41:43;;;;;;;10.85;6.47;;;;;;;11.41;33.25;97478.44;5116242;28;20023;-67
2022/03/22 07:44:12;;;;;;;10.10;6.60;;;;;;;11.60;33.07;97478.81;5115910;27;20389;-67
2022/03/22 07:46:37;;;;;;;10.60;6.25;;;;;;;11.85;33.55;97480.75;5115908;28;20020;-65
2022/03/22 07:54:36;;;;;;;12.25;6.18;;;;;;;11.47;33.34;97459.94;5115907;28;20038;-66
2022/03/22 07:57:03;;;;;;;13.88;7.15;;;;;;;11.26;34.61;97469.25;5115886;28;20023;-64
2022/03/22 07:59:29;;;;;;;10.45;6.40;;;;;;;11.08;34.28;97460.94;5115782;28;20026;-67
2022/03/22 08:01:55;;;;;;;10.50;7.78;;;;;;;11.21;34.89;97461.50;5115701;28;20024;-67
2022/03/22 08:04:21;;;;;;;11.18;5.25;;;;;;;11.55;34.81;97445.75;5115682;28;20122;-66
2022/03/22 08:06:46;;;;;;;10.50;5.80;;;;;;;11.31;35.06;97442.91;5115543;28;20508;-66
2022/03/22 08:09:12;;;;;;;11.95;5.82;;;;;;;11.55;34.86;97457.13;5115602;28;20103;-67
2022/03/22 08:11:42;;;;;;;8.82;5.18;;;;;;;11.34;35.05;97462.03;5115334;28;20027;-65
2022/03/22 08:14:08;;;;;;;8.55;5.63;;;;;;;11.34;35.10;97466.41;5115388;28;20054;-66
2022/03/22 08:16:36;;;;;;;9.32;5.15;;;;;;;11.62;34.91;97461.28;5115428;28;20043;-64
2022/03/22 08:19:05;;;;;;;7.20;4.55;;;;;;;11.39;35.13;97451.44;5115223;28;20103;-65
2022/03/22 08:21:31;;;;;;;10.70;5.90;;;;;;;11.12;36.24;97446.91;5115391;28;20031;-67
2022/03/22 08:23:58;;;;;;;9.05;5.30;;;;;;;11.33;35.67;97449.84;5115147;28;20526;-65
2022/03/22 08:26:24;;;;;;;10.70;5.95;;;;;;;11.77;35.08;97442.56;5115164;28;20019;-65
2022/03/22 08:28:50;;;;;;;9.15;5.78;;;;;;;11.77;34.79;97440.78;5115108;28;20423;-67
2022/03/22 08:31:16;;;;;;;7.63;5.40;;;;;;;11.79;34.38;97446.84;5115064;28;20032;-66
2022/03/22 08:33:41;;;;;;;9.00;5.70;;;;;;;11.87;34.98;97450.09;5114982;28;20098;-67
2022/03/22 08:36:07;;;;;;;9.40;5.75;;;;;;;11.96;34.40;97467.34;5115255;28;20442;-65
2022/03/22 08:38:33;;;;;;;8.05;5.32;;;;;;;11.85;34.35;97451.06;5114915;28;20031;-66
2022/03/22 08:40:59;;;;;;;9.25;5.68;;;;;;;11.98;34.74;97449.78;5114762;28;20059;-66
2022/03/22 08:43:25;;;;;;;9.85;5.78;;;;;;;11.72;35.04;97435.69;5114751;28;20054;-68
2022/03/22 08:45:52;;;;;;;10.82;5.38;;;;;;;11.57;35.44;97436.97;5114755;28;20020;-66
2022/03/22 08:48:18;;;;;;;10.85;5.55;;;;;;;11.74;35.51;97435.66;5114799;28;20019;-66
2022/03/22 08:50:46;;;;;;;9.60;4.88;;;;;;;11.49;35.45;97431.94;5114432;28;20023;-67
2022/03/22 08:53:13;;;;;;;10.70;5.07;;;;;;;11.40;36.25;97439.19;5114677;28;20457;-66
2022/03/22 08:55:39;;;;;;;8.70;5.30;;;;;;;11.20;36.17;97422.25;5114386;28;20083;-65
2022/03/22 08:58:05;;;;;;;13.00;7.47;;;;;;;11.18;35.87;97437.13;5114717;28;20107;-67
2022/03/22 09:00:33;;;;;;;11.27;5.60;;;;;;;11.23;36.23;97436.13;5114476;28;20022;-67
2022/03/22 09:03:00;;;;;;;8.45;5.47;;;;;;;11.58;35.49;97437.81;5114441;28;20503;-67
2022/03/22 09:08:09;;;;;;;7.90;4.60;;;;;;;11.69;34.81;97409.56;5114388;28;20168;-66
2022/03/22 09:10:36;;;;;;;9.05;5.47;;;;;;;12.00;35.74;97428.78;5114370;28;20111;-66
2022/03/22 09:13:07;;;;;;;11.40;5.30;;;;;;;11.80;34.61;97437.22;5114060;28;20025;-65
2022/03/22 09:15:36;;;;;;;7.80;5.30;;;;;;;11.83;34.82;97432.75;5114132;28;20036;-68
2022/03/22 09:18:03;;;;;;;9.73;5.63;;;;;;;11.94;34.33;97418.47;5114214;27;20024;-67
2022/03/22 09:20:32;;;;;;;9.07;5.55;;;;;;;12.12;33.83;97414.47;5114008;28;20462;-66
2022/03/22 09:23:00;;;;;;;9.45;5.03;;;;;;;12.10;35.47;97421.53;5114060;28;20043;-66
2022/03/22 09:25:27;;;;;;;7.03;5.38;;;;;;;12.19;34.59;97420.41;5113953;28;20043;-66
2022/03/22 09:27:54;;;;;;;8.70;5.45;;;;;;;12.51;35.07;97427.25;5113999;28;20024;-65
2022/03/22 09:30:20;;;;;;;12.98;5.43;;;;;;;12.55;33.16;97419.28;5114034;28;20105;-66
2022/03/22 09:32:46;;;;;;;9.52;5.43;;;;;;;12.47;33.85;97415.16;5113863;28;20023;-65
2022/03/22 09:35:14;;;;;;;9.10;5.78;;;;;;;12.29;35.13;97418.34;5113714;28;20465;-67
2022/03/22 09:37:42;;;;;;;12.15;6.18;;;;;;;12.00;34.61;97418.28;5113942;28;20023;-67
2022/03/22 09:40:12;;;;;;;8.13;5.32;;;;;;;11.81;34.15;97424.09;5113581;28;20047;-66
2022/03/22 09:42:42;;;;;;;5.47;4.23;;;;;;;11.21;34.94;97418.72;5113963;28;20030;-66
2022/03/22 09:45:17;;;;;;;8.50;4.68;;;;;;;11.18;35.51;97416.19;5112488;28;20416;-68
2022/03/22 09:47:45;;;;;;;8.02;4.95;;;;;;;11.24;35.55;97401.19;5113753;28;20077;-67
2022/03/22 09:50:12;;;;;;;6.43;4.60;;;;;;;11.07;35.94;97419.94;5113659;28;20012;-67
2022/03/22 09:52:39;;;;;;;7.25;4.47;;;;;;;10.98;35.68;97392.25;5113716;28;20102;-67
2022/03/22 09:55:07;;;;;;;9.10;5.50;;;;;;;11.14;35.60;97375.28;5113654;28;20024;-65
2022/03/22 09:57:36;;;;;;;11.05;5.57;;;;;;;11.18;35.66;97382.16;5113812;28;20022;-67
2022/03/22 10:00:03;;;;;;;9.05;5.97;;;;;;;11.41;34.79;97386.75;5113549;28;20114;-67
2022/03/22 10:02:32;;;;;;;9.75;6.05;;;;;;;11.64;34.64;97366.91;5112941;28;20444;-67
2022/03/22 10:04:58;;;;;;;17.02;5.93;;;;;;;11.55;34.89;97367.16;5113499;28;20102;-67
2022/03/22 10:07:25;;;;;;;9.70;5.00;;;;;;;11.61;34.47;97382.69;5113411;28;20560;-67
2022/03/22 10:09:57;;;;;;;11.00;6.47;;;;;;;11.50;35.05;97362.91;5113538;28;20096;-68
2022/03/22 10:12:34;;;;;;;8.13;5.13;;;;;;;11.57;35.13;97361.00;5113575;28;20039;-66
2022/03/22 10:15:13;;;;;;;10.50;5.57;;;;;;;12.12;36.00;97362.88;5113431;28;20106;-66
2022/03/22 10:17:40;;;;;;;9.77;6.03;;;;;;;12.44;34.26;97365.41;5113620;28;20027;-66
2022/03/22 10:20:08;;;;;;;12.38;6.47;;;;;;;12.46;33.69;97371.44;5113522;28;20023;-66
2022/03/22 10:22:35;;;;;;;8.43;5.22;;;;;;;12.09;33.68;97388.34;5113314;28;20028;-65
2022/03/22 10:25:05;;;;;;;9.43;6.20;;;;;;;11.81;34.74;97362.91;5113390;28;20478;-65
2022/03/22 10:27:34;;;;;;;7.72;5.03;;;;;;;11.68;34.83;97357.19;5113350;28;20061;-65
2022/03/22 10:30:06;;;;;;;14.57;6.40;;;;;;;11.74;35.66;97351.78;5113440;28;20362;-65
2022/03/22 10:32:51;;;;;;;12.20;6.10;;;;;;;11.92;35.79;97352.97;5113454;28;20035;-67
2022/03/22 10:35:17;;;;;;;11.15;6.40;;;;;;;11.85;34.82;97335.69;5113299;28;20031;-67
2022/03/22 10:37:48;;;;;;;11.10;6.78;;;;;;;11.67;35.23;97330.13;5113180;28;20358;-66
2022/03/22 10:40:22;;;;;;;13.77;6.40;;;;;;;11.78;35.12;97331.56;5113196;28;20126;-66
2022/03/22 10:42:53;;;;;;;9.27;6.03;;;;;;;12.04;35.37;97307.16;5113215;28;20015;-68
2022/03/22 10:45:18;;;;;;;12.60;6.47;;;;;;;12.02;34.95;97298.50;5113363;28;20051;-67
2022/03/22 10:47:44;;;;;;;9.32;6.30;;;;;;;12.15;35.46;97280.63;5113194;28;20503;-66
2022/03/22 10:50:11;;;;;;;13.32;6.60;;;;;;;12.48;35.06;97293.53;5112974;28;20030;-66
2022/03/22 10:52:57;;;;;;;10.98;6.95;;;;;;;12.59;34.34;97297.56;5113081;28;20085;-65
2022/03/22 10:55:27;;;;;;;14.55;6.68;;;;;;;12.36;34.80;97279.06;5112964;28;20035;-67
2022/03/22 10:58:02;;;;;;;13.93;7.00;;;;;;;12.49;34.94;97282.13;5113041;28;20107;-66
2022/03/22 11:00:30;;;;;;;11.70;6.30;;;;;;;12.29;34.54;97272.31;5113121;28;20055;-65
2022/03/22 11:02:56;;;;;;;9.55;6.93;;;;;;;11.83;35.78;97272.84;5112946;28;20023;-67
2022/03/22 11:05:25;;;;;;;12.93;6.70;;;;;;;11.72;36.10;97267.94;5112972;28;20022;-66
2022/03/22 11:07:53;;;;;;;10.57;6.97;;;;;;;11.99;37.33;97267.97;5113045;28;20027;-67
2022/03/22 11:10:25;;;;;;;11.60;6.03;;;;;;;12.10;35.57;97246.66;5113018;28;20098;-65
2022/03/22 11:12:51;;;;;;;10.48;6.15;;;;;;;12.01;35.42;97260.03;5114258;28;20023;-67
2022/03/22 11:15:18;;;;;;;13.35;6.15;;;;;;;12.01;35.76;97247.78;5116631;28;20115;-67
2022/03/22 11:17:48;;;;;;;12.60;6.30;;;;;;;11.92;36.05;97262.97;5116628;28;20027;-67
2022/03/22 11:20:15;;;;;;;12.77;6.13;;;;;;;12.08;35.87;97247.63;5116529;28;20024;-64
2022/03/22 11:22:57;;;;;;;11.65;6.55;;;;;;;12.33;35.40;97233.69;5116441;28;20354;-67
2022/03/22 11:25:31;;;;;;;10.68;5.93;;;;;;;12.42;35.15;97254.38;5116331;28;20434;-66
2022/03/22 11:28:18;;;;;;;20.02;8.20;;;;;;;12.69;34.90;97242.97;5116250;28;20028;-67
2022/03/22 11:30:45;;;;;;;9.60;6.20;;;;;;;12.81;34.45;97237.28;5116416;28;20522;-67
2022/03/22 11:36:25;;;;;;;10.00;6.13;;;;;;;12.91;34.72;97229.09;5116389;28;20103;-65
2022/03/22 11:38:56;;;;;;;11.00;6.93;;;;;;;12.81;34.96;97239.03;5116182;28;20063;-68
2022/03/22 11:44:27;;;;;;;10.52;6.35;;;;;;;12.81;34.40;97225.91;5116079;28;20100;-65
2022/03/22 11:47:20;;;;;;;11.65;6.25;;;;;;;12.90;34.09;97215.09;5116003;28;20035;-66
2022/03/22 11:50:00;;;;;;;10.40;6.25;;;;;;;13.01;34.77;97202.41;5115868;28;20054;-66
2022/03/22 11:52:27;;;;;;;11.27;6.43;;;;;;;13.26;34.70;97209.38;5115871;28;20023;-68
2022/03/22 11:55:15;;;;;;;9.45;5.85;;;;;;;13.03;33.56;97204.97;5115802;28;20059;-65
2022/03/22 11:57:49;;;;;;;13.43;6.47;;;;;;;13.07;34.19;97185.59;5115698;28;20039;-66
2022/03/22 12:00:42;;;;;;;9.20;5.70;;;;;;;13.11;34.05;97157.41;5115692;28;20039;-66
2022/03/22 12:03:15;;;;;;;7.78;5.07;;;;;;;13.14;33.23;97159.91;5115660;28;20389;-65
2022/03/22 12:05:41;;;;;;;9.30;5.25;;;;;;;13.14;32.84;97150.28;5115579;28;20039;-65
2022/03/22 12:08:13;;;;;;;10.15;5.20;;;;;;;13.37;32.50;97168.69;5115767;28;20488;-66